Serval III — CRA7323 — position and weather

sailwx.info

Track history (hours):
 
Tides and Currents Weather Stations Pressure Air Temp Water Temp Dewpoint Dewpoint Depression Visibility Wind Speed Wind Dir Waves Ship Positions

Serval III

Last reported at 2017-Nov-18 18:22 UTC. Time now 2017-Dec-15 12:18 UTC.
Position N 38°42' W 009°11'.
Warning: this ship's position is 26 days out of date.

Length 5 m.

Type: Sailing vessel. MMSI: 227265840.

Date/timePositionNaut miles runAvg speedWind from/ knotsBaromVisibWave heightAir tempDewpointWater temp
2017-Nov-18 18:22N 38°42' W 009°11'2 4.9
2017-Nov-18 18:00N 38°41' W 009°13'2 3.3
2017-Nov-18 17:28N 38°41' W 009°15'1 2.1
2017-Nov-18 16:59N 38°41' W 009°16'3 5.6
2017-Nov-18 16:28N 38°41' W 009°13'2 2.0
2017-Nov-18 15:38N 38°42' W 009°11'0 0.9
2017-Nov-18 15:11N 38°42' W 009°11'2 4.9
2017-Nov-18 14:49N 38°41' W 009°08'1 4.1
2017-Nov-18 14:29N 38°42' W 009°07'1 2.6
2017-Nov-18 13:57N 38°42' W 009°09'  
2017-Nov-12 17:56N 38°42' W 009°11'2 3.3
2017-Nov-12 17:28N 38°41' W 009°13'  
2017-Nov-08 19:30N 38°42' W 009°11'  
Track history (hours):
 
Tides and Currents Weather Stations Pressure Air Temp Water Temp Dewpoint Dewpoint Depression Visibility Wind Speed Wind Dir Waves Ship Positions

Serval III

Last reported at 2017-Nov-18 18:22 UTC. Time now 2017-Dec-15 12:18 UTC.
Position N 38°42' W 009°11'.
Warning: this ship's position is 26 days out of date.

Length 5 m.

Type: Sailing vessel. MMSI: 227265840.

Date/timePositionNaut miles runAvg speedWind from/ knotsBaromVisibWave heightAir tempDewpointWater temp
2017-Nov-18 18:22N 38°42' W 009°11'2 4.9
2017-Nov-18 18:00N 38°41' W 009°13'2 3.3
2017-Nov-18 17:28N 38°41' W 009°15'1 2.1
2017-Nov-18 16:59N 38°41' W 009°16'3 5.6
2017-Nov-18 16:28N 38°41' W 009°13'2 2.0
2017-Nov-18 15:38N 38°42' W 009°11'0 0.9
2017-Nov-18 15:11N 38°42' W 009°11'2 4.9
2017-Nov-18 14:49N 38°41' W 009°08'1 4.1
2017-Nov-18 14:29N 38°42' W 009°07'1 2.6
2017-Nov-18 13:57N 38°42' W 009°09'  
2017-Nov-12 17:56N 38°42' W 009°11'2 3.3
2017-Nov-12 17:28N 38°41' W 009°13'  
2017-Nov-08 19:30N 38°42' W 009°11'  

Dump ship's entire track history